Terminal Aerodrome Forecast
Issued by NWS

Home | Current Version | Previous Version | Text Only | Print | Product List | Glossary On
Versions: 1 2 3 4 5 6 7 8 9 10 11 12 13 14 15 16 17 18 19
377
FTUS41 KBGM 120227 AAA
TAFELM
TAF AMD
KELM 120227Z 1202/1224 VRB04KT P6SM -SN OVC040
     FM120700 16005KT 4SM -SN OVC025
      TEMPO 1209/1213 2SM -SN OVC012
     FM121300 27015G25KT P6SM OVC025
      TEMPO 1213/1217 4SM -SN OVC015=

USA.gov is the U.S. government's official web portal to all federal, state and local government web resources and services.